Relevés horaires Matro (Suisse)


Relevés horaires à Matro - Vendredi 02 Août 2019
Heure UTC1 Température [°C] Vent [km/h] Hum. [%] Pres.4 [hPa] Visi. [Km] Nébu. [octa] Préc.5 [mm] Cond.
2m. Res. Ros. Dir.2 Vit. Moy. Raf.3
23:00 8.4 4.4 1.6 NO 31.5 -- 50.0 62 850(0.0/3h) -- -- -- --
22:00 8.1 4.4 1.8 NO 25.9 -- 48.2 64 850(0.5/3h) -- -- -- --
21:00 8.7 4.5 1.0 NNO 35.2 -- 59.3 58 850(0.6/3h) -- -- -- --
20:00 8.8 4.8 1.0 NO 33.3 -- 50.0 58 850(0.4/3h) -- -- -- --
19:00 9.0 4.8 1.3 NNO 37.0 -- 59.3 58 850(0.1/3h) -- -- -- --
18:00 9.2 5.1 2.1 NO 37.0 -- 66.7 61 850(0.5/3h) -- -- -- --
17:00 9.5 5.3 1.8 NNO 40.7 -- 55.6 59 850(0.0/3h) -- -- -- --
16:00 9.8 6.3 1.9 NO 29.6 -- 55.6 58 850(0.3/3h) -- -- -- --
15:00 9.6 5.6 2.2 NNO 37.0 -- 61.1 60 850(0.0/3h) -- -- -- --
14:00 9.1 5.4 3.2 NO 29.6 -- 44.4 66 850(0.3/3h) -- -- -- --
13:00 9.2 6.2 3.6 NO 22.2 -- 46.3 68 850(-0.2/3h) -- -- -- --
12:00 9.1 6.4 4.3 NNO 18.5 -- 46.3 72 850(-0.3/3h) -- -- -- --
11:00 8.3 5.4 5.5 NNO 18.5 -- 46.3 82 850(-0.1/3h) -- -- -- --
10:00 10.8 8.5 5.6 NNO 18.5 -- 25.9 70 850(0.0/3h) -- -- -- --
09:00 11.8 10.4 3.6 NNO 13.0 -- 25.9 57 850(0.1/3h) -- -- -- --
08:00 11.3 9.8 3.6 NO 13.0 -- 25.9 59 850(0.1/3h) -- -- -- --
07:00 10.7 9.6 3.2 ONO 9.3 -- 16.7 60 850(-0.5/3h) -- -- -- --
06:00 10.2 8.4 3.2 NO 13.0 -- 50.0 62 850(-0.7/3h) -- -- -- --
05:00 9.1 6.8 4.4 NO 14.8 -- 38.9 72 850(-1.2/3h) -- -- -- --
04:00 7.5 3.6 6.1 NO 25.9 -- 50.0 91 850(-1.0/3h) -- -- -- --
03:00 10.4 8 4.1 NO 18.5 -- 35.2 65 850(-1.2/3h) -- -- -- --
02:00 10.1 7.6 6.3 NO 18.5 -- 35.2 77 850(-1.0/3h) -- -- -- --
01:00 10.2 9.8 9.9 ENE 5.6 -- 18.5 98 850(-0.9/3h) -- -- -- --
00:00 10.7 9 8.6 E 13.0 -- 44.4 87 850(-0.8/3h) -- -- -- --

1 Coordinated Universal Time. Actuellement il est 02:00 locale et 00:00 UTC.

2 Le vent souffle depuis la direction indiquée vers la direction oposée.

3 Les rafales max. sont disponible 40 min après l'heure du relevé.

4 Pour les stations d'altitude (plus de 600m) le géopotentiel du niveau le plus proche de la pression obligatoire est indiqué.

5 Les stations disposant d'un diffuseur peuvent indiquer "trace". Cela signifie que des précipitations ont touchés le sol mais que la quantité est inférieure à 0.1 mm.

Copyright

Les données affichées sur cette page sont la propriété exclusive de Météo Suisse.

Récapitulatif de la journée
Température [°C] Vent [km/h] Ensoleillement4 [h] Precipitations totale5 [mm] Pression [Hpa]
Min1 Max.2 Moy.3 Max. Min Max.
7.2 12.1 0 66.7 4 h 24 min 0 850.0 850.0

1 Température minimale relevée entre 18:00 UTC la veille et 18:00 UTC le jour donné.

2 Température maximale relevée entre 06:00 UTC le jour donné et 06:00 UTC le lendemain.

3 Vent moyen de la journée basé sur les relevés horaires.

4 Ensoleillement en heures relevé entre 06:00 UTC la veille et 06:00 UTC le jour donné.

5 Précipitations totales tombées entre 06:00 UTC la jour donné et 06:00 UTC le lendemain.

Graphiques horaires